sensor_id;sensor_type;location;lat;lon;timestamp;P1;durP1;ratioP1;P2;durP2;ratioP2
79592;SDS011;69074;45.164;9.704;2023-06-22T00:01:02;23.5;;;20.4;;
79592;SDS011;69074;45.164;9.704;2023-06-22T00:03:27;23.5;;;20.4;;
79592;SDS011;69074;45.164;9.704;2023-06-22T00:05:52;23.5;;;20.4;;
79592;SDS011;69074;45.164;9.704;2023-06-22T00:08:17;14.2;;;10.2;;
79592;SDS011;69074;45.164;9.704;2023-06-22T00:10:42;14.2;;;10.2;;
79592;SDS011;69074;45.164;9.704;2023-06-22T00:13:07;14.2;;;10.2;;
79592;SDS011;69074;45.164;9.704;2023-06-22T00:15:32;14.2;;;10.2;;
79592;SDS011;69074;45.164;9.704;2023-06-22T00:17:57;14.2;;;10.2;;
79592;SDS011;69074;45.164;9.704;2023-06-22T00:20:22;14.2;;;10.2;;
79592;SDS011;69074;45.164;9.704;2023-06-22T00:22:47;13.9;;;9.8;;
79592;SDS011;69074;45.164;9.704;2023-06-22T00:25:12;13.9;;;9.8;;
79592;SDS011;69074;45.164;9.704;2023-06-22T00:27:37;13.9;;;9.8;;
79592;SDS011;69074;45.164;9.704;2023-06-22T00:30:02;13.9;;;9.8;;
79592;SDS011;69074;45.164;9.704;2023-06-22T00:32:27;13.9;;;9.8;;
79592;SDS011;69074;45.164;9.704;2023-06-22T00:34:52;13.9;;;9.8;;
79592;SDS011;69074;45.164;9.704;2023-06-22T00:37:17;13.3;;;9.9;;
79592;SDS011;69074;45.164;9.704;2023-06-22T00:39:42;13.3;;;9.9;;
79592;SDS011;69074;45.164;9.704;2023-06-22T00:42:07;13.3;;;9.9;;
79592;SDS011;69074;45.164;9.704;2023-06-22T00:44:32;13.3;;;9.9;;
79592;SDS011;69074;45.164;9.704;2023-06-22T00:46:57;13.3;;;9.9;;
79592;SDS011;69074;45.164;9.704;2023-06-22T00:49:22;13.3;;;9.9;;
79592;SDS011;69074;45.164;9.704;2023-06-22T00:51:47;13.3;;;9.9;;
79592;SDS011;69074;45.164;9.704;2023-06-22T00:54:12;14.4;;;9.7;;
79592;SDS011;69074;45.164;9.704;2023-06-22T00:56:37;14.4;;;9.7;;
79592;SDS011;69074;45.164;9.704;2023-06-22T00:59:02;14.4;;;9.7;;
79592;SDS011;69074;45.164;9.704;2023-06-22T01:01:27;14.4;;;9.7;;
79592;SDS011;69074;45.164;9.704;2023-06-22T01:03:52;14.4;;;9.7;;
79592;SDS011;69074;45.164;9.704;2023-06-22T01:06:19;14.4;;;9.7;;
79592;SDS011;69074;45.164;9.704;2023-06-22T01:08:43;13.0;;;10.4;;
79592;SDS011;69074;45.164;9.704;2023-06-22T01:11:07;13.0;;;10.4;;
79592;SDS011;69074;45.164;9.704;2023-06-22T01:13:32;13.0;;;10.4;;
79592;SDS011;69074;45.164;9.704;2023-06-22T01:16:00;13.0;;;10.4;;
79592;SDS011;69074;45.164;9.704;2023-06-22T01:18:22;13.0;;;10.4;;
79592;SDS011;69074;45.164;9.704;2023-06-22T01:20:47;13.0;;;10.4;;
79592;SDS011;69074;45.164;9.704;2023-06-22T01:23:16;11.0;;;8.6;;
79592;SDS011;69074;45.164;9.704;2023-06-22T01:25:43;11.0;;;8.6;;
79592;SDS011;69074;45.164;9.704;2023-06-22T01:28:03;11.0;;;8.6;;
79592;SDS011;69074;45.164;9.704;2023-06-22T01:30:27;11.0;;;8.6;;
79592;SDS011;69074;45.164;9.704;2023-06-22T01:32:53;11.0;;;8.6;;
79592;SDS011;69074;45.164;9.704;2023-06-22T01:35:17;11.0;;;8.6;;
79592;SDS011;69074;45.164;9.704;2023-06-22T01:37:42;10.9;;;8.2;;
79592;SDS011;69074;45.164;9.704;2023-06-22T01:40:07;10.9;;;8.2;;
79592;SDS011;69074;45.164;9.704;2023-06-22T01:42:32;10.9;;;8.2;;
79592;SDS011;69074;45.164;9.704;2023-06-22T01:44:57;10.9;;;8.2;;
79592;SDS011;69074;45.164;9.704;2023-06-22T01:47:22;10.9;;;8.2;;
79592;SDS011;69074;45.164;9.704;2023-06-22T01:49:47;10.9;;;8.2;;
79592;SDS011;69074;45.164;9.704;2023-06-22T01:52:12;10.6;;;7.5;;
79592;SDS011;69074;45.164;9.704;2023-06-22T01:54:37;10.6;;;7.5;;
79592;SDS011;69074;45.164;9.704;2023-06-22T01:57:02;10.6;;;7.5;;
79592;SDS011;69074;45.164;9.704;2023-06-22T01:59:29;10.6;;;7.5;;
79592;SDS011;69074;45.164;9.704;2023-06-22T02:01:54;10.6;;;7.5;;
79592;SDS011;69074;45.164;9.704;2023-06-22T02:04:18;10.6;;;7.5;;
79592;SDS011;69074;45.164;9.704;2023-06-22T02:06:42;10.6;;;7.5;;
79592;SDS011;69074;45.164;9.704;2023-06-22T02:09:08;13.5;;;7.6;;
79592;SDS011;69074;45.164;9.704;2023-06-22T02:11:32;13.5;;;7.6;;
79592;SDS011;69074;45.164;9.704;2023-06-22T02:13:57;13.5;;;7.6;;
79592;SDS011;69074;45.164;9.704;2023-06-22T02:16:22;13.5;;;7.6;;
79592;SDS011;69074;45.164;9.704;2023-06-22T02:18:47;13.5;;;7.6;;
79592;SDS011;69074;45.164;9.704;2023-06-22T02:21:12;13.5;;;7.6;;
79592;SDS011;69074;45.164;9.704;2023-06-22T02:23:37;10.9;;;7.7;;
79592;SDS011;69074;45.164;9.704;2023-06-22T02:26:02;10.9;;;7.7;;
79592;SDS011;69074;45.164;9.704;2023-06-22T02:28:27;10.9;;;7.7;;
79592;SDS011;69074;45.164;9.704;2023-06-22T02:30:52;10.9;;;7.7;;
79592;SDS011;69074;45.164;9.704;2023-06-22T02:33:17;10.9;;;7.7;;
79592;SDS011;69074;45.164;9.704;2023-06-22T02:35:42;10.9;;;7.7;;
79592;SDS011;69074;45.164;9.704;2023-06-22T02:38:07;10.2;;;7.0;;
79592;SDS011;69074;45.164;9.704;2023-06-22T02:40:32;10.2;;;7.0;;
79592;SDS011;69074;45.164;9.704;2023-06-22T02:42:57;10.2;;;7.0;;
79592;SDS011;69074;45.164;9.704;2023-06-22T02:45:22;10.2;;;7.0;;
79592;SDS011;69074;45.164;9.704;2023-06-22T02:47:47;10.2;;;7.0;;
79592;SDS011;69074;45.164;9.704;2023-06-22T02:50:12;10.2;;;7.0;;
79592;SDS011;69074;45.164;9.704;2023-06-22T02:52:37;9.7;;;6.4;;
79592;SDS011;69074;45.164;9.704;2023-06-22T02:55:02;9.7;;;6.4;;
79592;SDS011;69074;45.164;9.704;2023-06-22T02:57:27;9.7;;;6.4;;
79592;SDS011;69074;45.164;9.704;2023-06-22T02:59:52;9.7;;;6.4;;
79592;SDS011;69074;45.164;9.704;2023-06-22T03:02:17;9.7;;;6.4;;
79592;SDS011;69074;45.164;9.704;2023-06-22T03:04:42;9.7;;;6.4;;
79592;SDS011;69074;45.164;9.704;2023-06-22T03:07:07;10.8;;;8.3;;
79592;SDS011;69074;45.164;9.704;2023-06-22T03:09:32;10.8;;;8.3;;
79592;SDS011;69074;45.164;9.704;2023-06-22T03:11:57;10.8;;;8.3;;
79592;SDS011;69074;45.164;9.704;2023-06-22T03:14:22;10.8;;;8.3;;
79592;SDS011;69074;45.164;9.704;2023-06-22T03:16:47;10.8;;;8.3;;
79592;SDS011;69074;45.164;9.704;2023-06-22T03:19:12;10.8;;;8.3;;
79592;SDS011;69074;45.164;9.704;2023-06-22T03:21:37;10.8;;;8.3;;
79592;SDS011;69074;45.164;9.704;2023-06-22T03:24:02;11.3;;;9.5;;
79592;SDS011;69074;45.164;9.704;2023-06-22T03:26:27;11.3;;;9.5;;
79592;SDS011;69074;45.164;9.704;2023-06-22T03:28:52;11.3;;;9.5;;
79592;SDS011;69074;45.164;9.704;2023-06-22T03:31:17;11.3;;;9.5;;
79592;SDS011;69074;45.164;9.704;2023-06-22T03:33:42;11.3;;;9.5;;
79592;SDS011;69074;45.164;9.704;2023-06-22T03:36:07;11.3;;;9.5;;
79592;SDS011;69074;45.164;9.704;2023-06-22T03:38:32;11.8;;;9.8;;
79592;SDS011;69074;45.164;9.704;2023-06-22T03:40:57;11.8;;;9.8;;
79592;SDS011;69074;45.164;9.704;2023-06-22T03:43:22;11.8;;;9.8;;
79592;SDS011;69074;45.164;9.704;2023-06-22T03:45:47;11.8;;;9.8;;
79592;SDS011;69074;45.164;9.704;2023-06-22T03:48:12;11.8;;;9.8;;
79592;SDS011;69074;45.164;9.704;2023-06-22T03:50:37;11.8;;;9.8;;
79592;SDS011;69074;45.164;9.704;2023-06-22T03:53:02;14.2;;;9.2;;
79592;SDS011;69074;45.164;9.704;2023-06-22T03:55:27;14.2;;;9.2;;
79592;SDS011;69074;45.164;9.704;2023-06-22T03:57:52;14.2;;;9.2;;
79592;SDS011;69074;45.164;9.704;2023-06-22T04:00:17;14.2;;;9.2;;
79592;SDS011;69074;45.164;9.704;2023-06-22T04:02:42;14.2;;;9.2;;
79592;SDS011;69074;45.164;9.704;2023-06-22T04:05:08;14.2;;;9.2;;
79592;SDS011;69074;45.164;9.704;2023-06-22T04:07:32;12.5;;;8.8;;
79592;SDS011;69074;45.164;9.704;2023-06-22T04:09:57;12.5;;;8.8;;
79592;SDS011;69074;45.164;9.704;2023-06-22T04:12:22;12.5;;;8.8;;
79592;SDS011;69074;45.164;9.704;2023-06-22T04:14:47;12.5;;;8.8;;
79592;SDS011;69074;45.164;9.704;2023-06-22T04:17:12;12.5;;;8.8;;
79592;SDS011;69074;45.164;9.704;2023-06-22T04:19:37;12.5;;;8.8;;
79592;SDS011;69074;45.164;9.704;2023-06-22T04:22:02;12.5;;;8.8;;
79592;SDS011;69074;45.164;9.704;2023-06-22T04:24:27;9.9;;;8.9;;
79592;SDS011;69074;45.164;9.704;2023-06-22T04:26:52;9.9;;;8.9;;
79592;SDS011;69074;45.164;9.704;2023-06-22T04:29:17;9.9;;;8.9;;
79592;SDS011;69074;45.164;9.704;2023-06-22T04:31:42;9.9;;;8.9;;
79592;SDS011;69074;45.164;9.704;2023-06-22T04:34:07;9.9;;;8.9;;
79592;SDS011;69074;45.164;9.704;2023-06-22T04:36:33;9.9;;;8.9;;
79592;SDS011;69074;45.164;9.704;2023-06-22T04:38:57;9.4;;;7.7;;
79592;SDS011;69074;45.164;9.704;2023-06-22T04:41:22;9.4;;;7.7;;
79592;SDS011;69074;45.164;9.704;2023-06-22T04:43:47;9.4;;;7.7;;
79592;SDS011;69074;45.164;9.704;2023-06-22T04:46:12;9.4;;;7.7;;
79592;SDS011;69074;45.164;9.704;2023-06-22T04:48:37;9.4;;;7.7;;
79592;SDS011;69074;45.164;9.704;2023-06-22T04:51:02;9.4;;;7.7;;
79592;SDS011;69074;45.164;9.704;2023-06-22T04:53:27;10.7;;;8.0;;
79592;SDS011;69074;45.164;9.704;2023-06-22T04:55:52;10.7;;;8.0;;
79592;SDS011;69074;45.164;9.704;2023-06-22T04:58:17;10.7;;;8.0;;
79592;SDS011;69074;45.164;9.704;2023-06-22T05:00:42;10.7;;;8.0;;
79592;SDS011;69074;45.164;9.704;2023-06-22T05:03:07;10.7;;;8.0;;
79592;SDS011;69074;45.164;9.704;2023-06-22T05:05:32;10.7;;;8.0;;
79592;SDS011;69074;45.164;9.704;2023-06-22T05:07:57;9.9;;;7.2;;
79592;SDS011;69074;45.164;9.704;2023-06-22T05:10:22;9.9;;;7.2;;
79592;SDS011;69074;45.164;9.704;2023-06-22T05:12:47;9.9;;;7.2;;
79592;SDS011;69074;45.164;9.704;2023-06-22T05:15:12;9.9;;;7.2;;
79592;SDS011;69074;45.164;9.704;2023-06-22T05:17:37;9.9;;;7.2;;
79592;SDS011;69074;45.164;9.704;2023-06-22T05:20:02;9.9;;;7.2;;
79592;SDS011;69074;45.164;9.704;2023-06-22T05:22:27;9.4;;;7.1;;
79592;SDS011;69074;45.164;9.704;2023-06-22T05:24:52;9.4;;;7.1;;
79592;SDS011;69074;45.164;9.704;2023-06-22T05:27:17;9.4;;;7.1;;
79592;SDS011;69074;45.164;9.704;2023-06-22T05:29:42;9.4;;;7.1;;
79592;SDS011;69074;45.164;9.704;2023-06-22T05:32:07;9.4;;;7.1;;
79592;SDS011;69074;45.164;9.704;2023-06-22T05:34:32;9.4;;;7.1;;
79592;SDS011;69074;45.164;9.704;2023-06-22T05:36:57;9.4;;;7.1;;
79592;SDS011;69074;45.164;9.704;2023-06-22T05:39:22;10.2;;;7.0;;
79592;SDS011;69074;45.164;9.704;2023-06-22T05:41:47;10.2;;;7.0;;
79592;SDS011;69074;45.164;9.704;2023-06-22T05:44:12;10.2;;;7.0;;
79592;SDS011;69074;45.164;9.704;2023-06-22T05:46:39;10.2;;;7.0;;
79592;SDS011;69074;45.164;9.704;2023-06-22T05:49:02;10.2;;;7.0;;
79592;SDS011;69074;45.164;9.704;2023-06-22T05:51:27;10.2;;;7.0;;
79592;SDS011;69074;45.164;9.704;2023-06-22T05:53:52;11.3;;;7.8;;
79592;SDS011;69074;45.164;9.704;2023-06-22T05:56:17;11.3;;;7.8;;
79592;SDS011;69074;45.164;9.704;2023-06-22T05:58:42;11.3;;;7.8;;
79592;SDS011;69074;45.164;9.704;2023-06-22T06:01:07;11.3;;;7.8;;
79592;SDS011;69074;45.164;9.704;2023-06-22T06:03:32;11.3;;;7.8;;
79592;SDS011;69074;45.164;9.704;2023-06-22T06:05:57;11.3;;;7.8;;
79592;SDS011;69074;45.164;9.704;2023-06-22T06:08:22;13.4;;;7.5;;
79592;SDS011;69074;45.164;9.704;2023-06-22T06:10:47;13.4;;;7.5;;
79592;SDS011;69074;45.164;9.704;2023-06-22T06:13:12;13.4;;;7.5;;
79592;SDS011;69074;45.164;9.704;2023-06-22T06:15:37;13.4;;;7.5;;
79592;SDS011;69074;45.164;9.704;2023-06-22T06:18:02;13.4;;;7.5;;
79592;SDS011;69074;45.164;9.704;2023-06-22T06:20:27;13.4;;;7.5;;
79592;SDS011;69074;45.164;9.704;2023-06-22T06:22:52;10.1;;;6.3;;
79592;SDS011;69074;45.164;9.704;2023-06-22T06:25:18;10.1;;;6.3;;
79592;SDS011;69074;45.164;9.704;2023-06-22T06:27:42;10.1;;;6.3;;
79592;SDS011;69074;45.164;9.704;2023-06-22T06:30:07;10.1;;;6.3;;
79592;SDS011;69074;45.164;9.704;2023-06-22T06:32:32;10.1;;;6.3;;
79592;SDS011;69074;45.164;9.704;2023-06-22T06:34:57;10.1;;;6.3;;
79592;SDS011;69074;45.164;9.704;2023-06-22T06:37:22;15.6;;;11.9;;
79592;SDS011;69074;45.164;9.704;2023-06-22T06:39:47;15.6;;;11.9;;
79592;SDS011;69074;45.164;9.704;2023-06-22T06:42:12;15.6;;;11.9;;
79592;SDS011;69074;45.164;9.704;2023-06-22T06:44:37;15.6;;;11.9;;
79592;SDS011;69074;45.164;9.704;2023-06-22T06:47:02;15.6;;;11.9;;
79592;SDS011;69074;45.164;9.704;2023-06-22T06:49:27;15.6;;;11.9;;
79592;SDS011;69074;45.164;9.704;2023-06-22T06:51:52;15.6;;;11.9;;
79592;SDS011;69074;45.164;9.704;2023-06-22T06:54:17;15.4;;;10.4;;
79592;SDS011;69074;45.164;9.704;2023-06-22T06:56:42;15.4;;;10.4;;
79592;SDS011;69074;45.164;9.704;2023-06-22T06:59:07;15.4;;;10.4;;
79592;SDS011;69074;45.164;9.704;2023-06-22T07:01:32;15.4;;;10.4;;
79592;SDS011;69074;45.164;9.704;2023-06-22T07:03:57;15.4;;;10.4;;
79592;SDS011;69074;45.164;9.704;2023-06-22T07:06:22;15.4;;;10.4;;
79592;SDS011;69074;45.164;9.704;2023-06-22T07:08:47;11.4;;;6.7;;
79592;SDS011;69074;45.164;9.704;2023-06-22T07:11:12;11.4;;;6.7;;
79592;SDS011;69074;45.164;9.704;2023-06-22T07:13:37;11.4;;;6.7;;
79592;SDS011;69074;45.164;9.704;2023-06-22T07:16:02;11.4;;;6.7;;
79592;SDS011;69074;45.164;9.704;2023-06-22T07:18:27;11.4;;;6.7;;
79592;SDS011;69074;45.164;9.704;2023-06-22T07:20:52;11.4;;;6.7;;
79592;SDS011;69074;45.164;9.704;2023-06-22T07:23:17;10.5;;;7.1;;
79592;SDS011;69074;45.164;9.704;2023-06-22T07:25:42;10.5;;;7.1;;
79592;SDS011;69074;45.164;9.704;2023-06-22T07:28:07;10.5;;;7.1;;
79592;SDS011;69074;45.164;9.704;2023-06-22T07:30:32;10.5;;;7.1;;
79592;SDS011;69074;45.164;9.704;2023-06-22T07:32:57;10.5;;;7.1;;
79592;SDS011;69074;45.164;9.704;2023-06-22T07:35:22;10.5;;;7.1;;
79592;SDS011;69074;45.164;9.704;2023-06-22T07:37:47;14.3;;;11.2;;
79592;SDS011;69074;45.164;9.704;2023-06-22T07:40:12;14.3;;;11.2;;
79592;SDS011;69074;45.164;9.704;2023-06-22T07:42:37;14.3;;;11.2;;
79592;SDS011;69074;45.164;9.704;2023-06-22T07:45:02;14.3;;;11.2;;
79592;SDS011;69074;45.164;9.704;2023-06-22T07:47:27;14.3;;;11.2;;
79592;SDS011;69074;45.164;9.704;2023-06-22T07:49:52;14.3;;;11.2;;
79592;SDS011;69074;45.164;9.704;2023-06-22T07:52:17;12.2;;;8.4;;
79592;SDS011;69074;45.164;9.704;2023-06-22T07:54:42;12.2;;;8.4;;
79592;SDS011;69074;45.164;9.704;2023-06-22T07:57:07;12.2;;;8.4;;
79592;SDS011;69074;45.164;9.704;2023-06-22T07:59:32;12.2;;;8.4;;
79592;SDS011;69074;45.164;9.704;2023-06-22T08:01:57;12.2;;;8.4;;
79592;SDS011;69074;45.164;9.704;2023-06-22T08:04:22;12.2;;;8.4;;
79592;SDS011;69074;45.164;9.704;2023-06-22T08:06:47;12.2;;;8.4;;
79592;SDS011;69074;45.164;9.704;2023-06-22T08:09:12;20.2;;;15.3;;
79592;SDS011;69074;45.164;9.704;2023-06-22T08:11:37;20.2;;;15.3;;
79592;SDS011;69074;45.164;9.704;2023-06-22T08:14:02;20.2;;;15.3;;
79592;SDS011;69074;45.164;9.704;2023-06-22T08:16:27;20.2;;;15.3;;
79592;SDS011;69074;45.164;9.704;2023-06-22T08:18:52;20.2;;;15.3;;
79592;SDS011;69074;45.164;9.704;2023-06-22T08:21:17;20.2;;;15.3;;
79592;SDS011;69074;45.164;9.704;2023-06-22T08:23:42;11.8;;;8.1;;
79592;SDS011;69074;45.164;9.704;2023-06-22T08:26:07;11.8;;;8.1;;
79592;SDS011;69074;45.164;9.704;2023-06-22T08:28:32;11.8;;;8.1;;
79592;SDS011;69074;45.164;9.704;2023-06-22T08:30:57;11.8;;;8.1;;
79592;SDS011;69074;45.164;9.704;2023-06-22T08:33:22;11.8;;;8.1;;
79592;SDS011;69074;45.164;9.704;2023-06-22T08:35:47;11.8;;;8.1;;
79592;SDS011;69074;45.164;9.704;2023-06-22T08:38:12;13.3;;;8.0;;
79592;SDS011;69074;45.164;9.704;2023-06-22T08:40:37;13.3;;;8.0;;
79592;SDS011;69074;45.164;9.704;2023-06-22T08:43:02;13.3;;;8.0;;
79592;SDS011;69074;45.164;9.704;2023-06-22T08:45:27;13.3;;;8.0;;
79592;SDS011;69074;45.164;9.704;2023-06-22T08:47:52;13.3;;;8.0;;
79592;SDS011;69074;45.164;9.704;2023-06-22T08:50:17;13.3;;;8.0;;
79592;SDS011;69074;45.164;9.704;2023-06-22T08:52:42;13.9;;;8.6;;
79592;SDS011;69074;45.164;9.704;2023-06-22T08:55:07;13.9;;;8.6;;
79592;SDS011;69074;45.164;9.704;2023-06-22T08:57:32;13.9;;;8.6;;
79592;SDS011;69074;45.164;9.704;2023-06-22T08:59:57;13.9;;;8.6;;
79592;SDS011;69074;45.164;9.704;2023-06-22T09:02:22;13.9;;;8.6;;
79592;SDS011;69074;45.164;9.704;2023-06-22T09:04:47;13.9;;;8.6;;
79592;SDS011;69074;45.164;9.704;2023-06-22T09:07:12;21.0;;;16.9;;
79592;SDS011;69074;45.164;9.704;2023-06-22T09:09:37;21.0;;;16.9;;
79592;SDS011;69074;45.164;9.704;2023-06-22T09:12:02;21.0;;;16.9;;
79592;SDS011;69074;45.164;9.704;2023-06-22T09:14:27;21.0;;;16.9;;
79592;SDS011;69074;45.164;9.704;2023-06-22T09:16:52;21.0;;;16.9;;
79592;SDS011;69074;45.164;9.704;2023-06-22T09:19:17;21.0;;;16.9;;
79592;SDS011;69074;45.164;9.704;2023-06-22T09:21:42;21.0;;;16.9;;
79592;SDS011;69074;45.164;9.704;2023-06-22T09:24:07;14.5;;;11.8;;
79592;SDS011;69074;45.164;9.704;2023-06-22T09:26:32;14.5;;;11.8;;
79592;SDS011;69074;45.164;9.704;2023-06-22T09:28:57;14.5;;;11.8;;
79592;SDS011;69074;45.164;9.704;2023-06-22T09:31:22;14.5;;;11.8;;
79592;SDS011;69074;45.164;9.704;2023-06-22T09:33:47;14.5;;;11.8;;
79592;SDS011;69074;45.164;9.704;2023-06-22T09:36:12;14.5;;;11.8;;
79592;SDS011;69074;45.164;9.704;2023-06-22T09:38:37;11.5;;;9.9;;
79592;SDS011;69074;45.164;9.704;2023-06-22T09:41:02;11.5;;;9.9;;
79592;SDS011;69074;45.164;9.704;2023-06-22T09:43:27;11.5;;;9.9;;
79592;SDS011;69074;45.164;9.704;2023-06-22T09:45:52;11.5;;;9.9;;
79592;SDS011;69074;45.164;9.704;2023-06-22T09:48:17;11.5;;;9.9;;
79592;SDS011;69074;45.164;9.704;2023-06-22T09:50:42;11.5;;;9.9;;
79592;SDS011;69074;45.164;9.704;2023-06-22T09:53:07;21.5;;;18.7;;
79592;SDS011;69074;45.164;9.704;2023-06-22T09:55:32;21.5;;;18.7;;
79592;SDS011;69074;45.164;9.704;2023-06-22T09:57:57;21.5;;;18.7;;
79592;SDS011;69074;45.164;9.704;2023-06-22T10:00:22;21.5;;;18.7;;
79592;SDS011;69074;45.164;9.704;2023-06-22T10:02:47;21.5;;;18.7;;
79592;SDS011;69074;45.164;9.704;2023-06-22T10:05:12;21.5;;;18.7;;
79592;SDS011;69074;45.164;9.704;2023-06-22T10:07:37;14.3;;;12.1;;
79592;SDS011;69074;45.164;9.704;2023-06-22T10:10:02;14.3;;;12.1;;
79592;SDS011;69074;45.164;9.704;2023-06-22T10:12:27;14.3;;;12.1;;
79592;SDS011;69074;45.164;9.704;2023-06-22T10:14:52;14.3;;;12.1;;
79592;SDS011;69074;45.164;9.704;2023-06-22T10:17:17;14.3;;;12.1;;
79592;SDS011;69074;45.164;9.704;2023-06-22T10:19:42;14.3;;;12.1;;
79592;SDS011;69074;45.164;9.704;2023-06-22T10:22:07;14.8;;;10.6;;
79592;SDS011;69074;45.164;9.704;2023-06-22T10:24:32;14.8;;;10.6;;
79592;SDS011;69074;45.164;9.704;2023-06-22T10:26:57;14.8;;;10.6;;
79592;SDS011;69074;45.164;9.704;2023-06-22T10:29:22;14.8;;;10.6;;
79592;SDS011;69074;45.164;9.704;2023-06-22T10:31:47;14.8;;;10.6;;
79592;SDS011;69074;45.164;9.704;2023-06-22T10:34:12;14.8;;;10.6;;
79592;SDS011;69074;45.164;9.704;2023-06-22T10:36:37;14.8;;;10.6;;
79592;SDS011;69074;45.164;9.704;2023-06-22T10:39:02;13.0;;;9.6;;
79592;SDS011;69074;45.164;9.704;2023-06-22T10:41:27;13.0;;;9.6;;
79592;SDS011;69074;45.164;9.704;2023-06-22T10:43:52;13.0;;;9.6;;
79592;SDS011;69074;45.164;9.704;2023-06-22T10:46:17;13.0;;;9.6;;
79592;SDS011;69074;45.164;9.704;2023-06-22T10:48:42;13.0;;;9.6;;
79592;SDS011;69074;45.164;9.704;2023-06-22T10:51:07;13.0;;;9.6;;
79592;SDS011;69074;45.164;9.704;2023-06-22T10:53:32;15.4;;;8.9;;
79592;SDS011;69074;45.164;9.704;2023-06-22T10:55:57;15.4;;;8.9;;
79592;SDS011;69074;45.164;9.704;2023-06-22T10:58:22;15.4;;;8.9;;
79592;SDS011;69074;45.164;9.704;2023-06-22T11:00:47;15.4;;;8.9;;
79592;SDS011;69074;45.164;9.704;2023-06-22T11:03:12;15.4;;;8.9;;
79592;SDS011;69074;45.164;9.704;2023-06-22T11:05:37;15.4;;;8.9;;
79592;SDS011;69074;45.164;9.704;2023-06-22T11:08:02;11.3;;;7.9;;
79592;SDS011;69074;45.164;9.704;2023-06-22T11:10:27;11.3;;;7.9;;
79592;SDS011;69074;45.164;9.704;2023-06-22T11:12:52;11.3;;;7.9;;
79592;SDS011;69074;45.164;9.704;2023-06-22T11:15:17;11.3;;;7.9;;
79592;SDS011;69074;45.164;9.704;2023-06-22T11:17:42;11.3;;;7.9;;
79592;SDS011;69074;45.164;9.704;2023-06-22T11:20:07;11.3;;;7.9;;
79592;SDS011;69074;45.164;9.704;2023-06-22T11:22:32;10.1;;;7.8;;
79592;SDS011;69074;45.164;9.704;2023-06-22T11:24:57;10.1;;;7.8;;
79592;SDS011;69074;45.164;9.704;2023-06-22T11:27:22;10.1;;;7.8;;
79592;SDS011;69074;45.164;9.704;2023-06-22T11:29:47;10.1;;;7.8;;
79592;SDS011;69074;45.164;9.704;2023-06-22T11:32:12;10.1;;;7.8;;
79592;SDS011;69074;45.164;9.704;2023-06-22T11:34:37;10.1;;;7.8;;
79592;SDS011;69074;45.164;9.704;2023-06-22T11:37:02;10.1;;;7.8;;
79592;SDS011;69074;45.164;9.704;2023-06-22T11:39:27;11.7;;;8.3;;
79592;SDS011;69074;45.164;9.704;2023-06-22T11:41:52;11.7;;;8.3;;
79592;SDS011;69074;45.164;9.704;2023-06-22T11:44:17;11.7;;;8.3;;
79592;SDS011;69074;45.164;9.704;2023-06-22T11:46:42;11.7;;;8.3;;
79592;SDS011;69074;45.164;9.704;2023-06-22T11:49:07;11.7;;;8.3;;
79592;SDS011;69074;45.164;9.704;2023-06-22T11:51:32;11.7;;;8.3;;
79592;SDS011;69074;45.164;9.704;2023-06-22T11:53:57;11.8;;;8.1;;
79592;SDS011;69074;45.164;9.704;2023-06-22T11:56:22;11.8;;;8.1;;
79592;SDS011;69074;45.164;9.704;2023-06-22T11:58:47;11.8;;;8.1;;
79592;SDS011;69074;45.164;9.704;2023-06-22T12:01:12;11.8;;;8.1;;
79592;SDS011;69074;45.164;9.704;2023-06-22T12:03:37;11.8;;;8.1;;
79592;SDS011;69074;45.164;9.704;2023-06-22T12:06:02;11.8;;;8.1;;
79592;SDS011;69074;45.164;9.704;2023-06-22T12:08:27;10.5;;;8.6;;
79592;SDS011;69074;45.164;9.704;2023-06-22T12:10:52;10.5;;;8.6;;
79592;SDS011;69074;45.164;9.704;2023-06-22T12:13:17;10.5;;;8.6;;
79592;SDS011;69074;45.164;9.704;2023-06-22T12:15:42;10.5;;;8.6;;
79592;SDS011;69074;45.164;9.704;2023-06-22T12:18:07;10.5;;;8.6;;
79592;SDS011;69074;45.164;9.704;2023-06-22T12:20:32;10.5;;;8.6;;
79592;SDS011;69074;45.164;9.704;2023-06-22T12:22:57;12.4;;;8.8;;
79592;SDS011;69074;45.164;9.704;2023-06-22T12:25:22;12.4;;;8.8;;
79592;SDS011;69074;45.164;9.704;2023-06-22T12:27:47;12.4;;;8.8;;
79592;SDS011;69074;45.164;9.704;2023-06-22T12:30:12;12.4;;;8.8;;
79592;SDS011;69074;45.164;9.704;2023-06-22T12:32:37;12.4;;;8.8;;
79592;SDS011;69074;45.164;9.704;2023-06-22T12:35:02;12.4;;;8.8;;
79592;SDS011;69074;45.164;9.704;2023-06-22T12:37:27;10.3;;;8.6;;
79592;SDS011;69074;45.164;9.704;2023-06-22T12:39:53;10.3;;;8.6;;
79592;SDS011;69074;45.164;9.704;2023-06-22T12:42:17;10.3;;;8.6;;
79592;SDS011;69074;45.164;9.704;2023-06-22T12:44:42;10.3;;;8.6;;
79592;SDS011;69074;45.164;9.704;2023-06-22T12:47:07;10.3;;;8.6;;
79592;SDS011;69074;45.164;9.704;2023-06-22T12:49:32;10.3;;;8.6;;
79592;SDS011;69074;45.164;9.704;2023-06-22T12:51:57;10.3;;;8.6;;
79592;SDS011;69074;45.164;9.704;2023-06-22T12:54:22;9.8;;;8.2;;
79592;SDS011;69074;45.164;9.704;2023-06-22T12:56:47;9.8;;;8.2;;
79592;SDS011;69074;45.164;9.704;2023-06-22T12:59:12;9.8;;;8.2;;
79592;SDS011;69074;45.164;9.704;2023-06-22T13:01:37;9.8;;;8.2;;
79592;SDS011;69074;45.164;9.704;2023-06-22T13:04:02;9.8;;;8.2;;
79592;SDS011;69074;45.164;9.704;2023-06-22T13:06:27;9.8;;;8.2;;
79592;SDS011;69074;45.164;9.704;2023-06-22T13:08:52;10.3;;;8.1;;
79592;SDS011;69074;45.164;9.704;2023-06-22T13:11:17;10.3;;;8.1;;
79592;SDS011;69074;45.164;9.704;2023-06-22T13:13:43;10.3;;;8.1;;
79592;SDS011;69074;45.164;9.704;2023-06-22T13:16:07;10.3;;;8.1;;
79592;SDS011;69074;45.164;9.704;2023-06-22T13:18:32;10.3;;;8.1;;
79592;SDS011;69074;45.164;9.704;2023-06-22T13:20:57;10.3;;;8.1;;
79592;SDS011;69074;45.164;9.704;2023-06-22T13:23:22;9.0;;;8.0;;
79592;SDS011;69074;45.164;9.704;2023-06-22T13:25:47;9.0;;;8.0;;
79592;SDS011;69074;45.164;9.704;2023-06-22T13:28:12;9.0;;;8.0;;
79592;SDS011;69074;45.164;9.704;2023-06-22T13:30:37;9.0;;;8.0;;
79592;SDS011;69074;45.164;9.704;2023-06-22T13:33:02;9.0;;;8.0;;
79592;SDS011;69074;45.164;9.704;2023-06-22T13:35:27;9.0;;;8.0;;
79592;SDS011;69074;45.164;9.704;2023-06-22T13:37:52;8.5;;;7.6;;
79592;SDS011;69074;45.164;9.704;2023-06-22T13:40:17;8.5;;;7.6;;
79592;SDS011;69074;45.164;9.704;2023-06-22T13:42:42;8.5;;;7.6;;
79592;SDS011;69074;45.164;9.704;2023-06-22T13:45:07;8.5;;;7.6;;
79592;SDS011;69074;45.164;9.704;2023-06-22T13:47:32;8.5;;;7.6;;
79592;SDS011;69074;45.164;9.704;2023-06-22T13:49:57;8.5;;;7.6;;
79592;SDS011;69074;45.164;9.704;2023-06-22T13:52:22;9.6;;;7.6;;
79592;SDS011;69074;45.164;9.704;2023-06-22T13:54:47;9.6;;;7.6;;
79592;SDS011;69074;45.164;9.704;2023-06-22T13:57:12;9.6;;;7.6;;
79592;SDS011;69074;45.164;9.704;2023-06-22T13:59:37;9.6;;;7.6;;
79592;SDS011;69074;45.164;9.704;2023-06-22T14:02:02;9.6;;;7.6;;
79592;SDS011;69074;45.164;9.704;2023-06-22T14:04:27;9.6;;;7.6;;
79592;SDS011;69074;45.164;9.704;2023-06-22T14:06:52;9.6;;;7.6;;
79592;SDS011;69074;45.164;9.704;2023-06-22T14:09:17;9.0;;;7.6;;
79592;SDS011;69074;45.164;9.704;2023-06-22T14:11:42;9.0;;;7.6;;
79592;SDS011;69074;45.164;9.704;2023-06-22T14:14:07;9.0;;;7.6;;
79592;SDS011;69074;45.164;9.704;2023-06-22T14:16:32;9.0;;;7.6;;
79592;SDS011;69074;45.164;9.704;2023-06-22T14:18:57;9.0;;;7.6;;
79592;SDS011;69074;45.164;9.704;2023-06-22T14:21:22;9.0;;;7.6;;
79592;SDS011;69074;45.164;9.704;2023-06-22T14:23:47;10.2;;;7.5;;
79592;SDS011;69074;45.164;9.704;2023-06-22T14:26:12;10.2;;;7.5;;
79592;SDS011;69074;45.164;9.704;2023-06-22T14:28:37;10.2;;;7.5;;
79592;SDS011;69074;45.164;9.704;2023-06-22T14:31:02;10.2;;;7.5;;
79592;SDS011;69074;45.164;9.704;2023-06-22T14:33:27;10.2;;;7.5;;
79592;SDS011;69074;45.164;9.704;2023-06-22T14:35:52;10.2;;;7.5;;
79592;SDS011;69074;45.164;9.704;2023-06-22T14:38:17;15.2;;;10.0;;
79592;SDS011;69074;45.164;9.704;2023-06-22T14:40:42;15.2;;;10.0;;
79592;SDS011;69074;45.164;9.704;2023-06-22T14:43:07;15.2;;;10.0;;
79592;SDS011;69074;45.164;9.704;2023-06-22T14:45:32;15.2;;;10.0;;